sensor_id;sensor_type;location;lat;lon;timestamp;P1;durP1;ratioP1;P2;durP2;ratioP2
51048;SDS011;37084;55.228;36.450;2022-11-09T00:00:07;32.25;;;10.68;;
51048;SDS011;37084;55.228;36.450;2022-11-09T00:03:10;32.15;;;10.93;;
51048;SDS011;37084;55.228;36.450;2022-11-09T00:06:12;32.75;;;10.43;;
51048;SDS011;37084;55.228;36.450;2022-11-09T00:09:13;35.53;;;11.18;;
51048;SDS011;37084;55.228;36.450;2022-11-09T00:12:14;29.23;;;10.77;;
51048;SDS011;37084;55.228;36.450;2022-11-09T00:15:16;32.88;;;11.45;;
51048;SDS011;37084;55.228;36.450;2022-11-09T00:18:17;31.27;;;11.00;;
51048;SDS011;37084;55.228;36.450;2022-11-09T00:21:19;32.30;;;10.98;;
51048;SDS011;37084;55.228;36.450;2022-11-09T00:24:21;36.25;;;11.38;;
51048;SDS011;37084;55.228;36.450;2022-11-09T00:27:22;32.78;;;10.23;;
51048;SDS011;37084;55.228;36.450;2022-11-09T00:30:24;34.33;;;10.98;;
51048;SDS011;37084;55.228;36.450;2022-11-09T00:33:26;34.00;;;11.63;;
51048;SDS011;37084;55.228;36.450;2022-11-09T00:36:28;33.90;;;12.57;;
51048;SDS011;37084;55.228;36.450;2022-11-09T00:39:30;34.97;;;10.68;;
51048;SDS011;37084;55.228;36.450;2022-11-09T00:42:32;39.60;;;12.50;;
51048;SDS011;37084;55.228;36.450;2022-11-09T00:45:33;31.15;;;11.20;;
51048;SDS011;37084;55.228;36.450;2022-11-09T00:48:36;38.22;;;12.38;;
51048;SDS011;37084;55.228;36.450;2022-11-09T00:51:38;33.03;;;10.90;;
51048;SDS011;37084;55.228;36.450;2022-11-09T00:54:39;35.33;;;11.05;;
51048;SDS011;37084;55.228;36.450;2022-11-09T00:57:40;36.70;;;11.65;;
51048;SDS011;37084;55.228;36.450;2022-11-09T01:00:42;32.17;;;12.90;;
51048;SDS011;37084;55.228;36.450;2022-11-09T01:03:44;36.58;;;10.70;;
51048;SDS011;37084;55.228;36.450;2022-11-09T01:06:45;31.98;;;9.45;;
51048;SDS011;37084;55.228;36.450;2022-11-09T01:09:46;33.65;;;10.93;;
51048;SDS011;37084;55.228;36.450;2022-11-09T01:12:47;31.38;;;10.15;;
51048;SDS011;37084;55.228;36.450;2022-11-09T01:15:50;37.65;;;10.27;;
51048;SDS011;37084;55.228;36.450;2022-11-09T01:18:55;35.22;;;10.77;;
51048;SDS011;37084;55.228;36.450;2022-11-09T01:21:58;29.38;;;10.55;;
51048;SDS011;37084;55.228;36.450;2022-11-09T01:25:02;31.00;;;9.55;;
51048;SDS011;37084;55.228;36.450;2022-11-09T01:28:04;31.42;;;9.85;;
51048;SDS011;37084;55.228;36.450;2022-11-09T01:34:27;32.50;;;11.45;;
51048;SDS011;37084;55.228;36.450;2022-11-09T01:37:29;33.67;;;9.85;;
51048;SDS011;37084;55.228;36.450;2022-11-09T01:40:31;34.58;;;11.32;;
51048;SDS011;37084;55.228;36.450;2022-11-09T01:43:33;27.02;;;9.27;;
51048;SDS011;37084;55.228;36.450;2022-11-09T01:46:37;23.50;;;8.25;;
51048;SDS011;37084;55.228;36.450;2022-11-09T01:49:51;34.80;;;10.63;;
51048;SDS011;37084;55.228;36.450;2022-11-09T01:52:54;25.88;;;9.07;;
51048;SDS011;37084;55.228;36.450;2022-11-09T01:55:56;39.25;;;11.57;;
51048;SDS011;37084;55.228;36.450;2022-11-09T01:59:02;32.30;;;10.07;;
51048;SDS011;37084;55.228;36.450;2022-11-09T02:02:06;31.52;;;9.82;;
51048;SDS011;37084;55.228;36.450;2022-11-09T02:05:14;31.98;;;9.32;;
51048;SDS011;37084;55.228;36.450;2022-11-09T02:08:19;35.25;;;10.02;;
51048;SDS011;37084;55.228;36.450;2022-11-09T02:11:21;37.83;;;11.50;;
51048;SDS011;37084;55.228;36.450;2022-11-09T02:14:24;36.30;;;11.65;;
51048;SDS011;37084;55.228;36.450;2022-11-09T02:17:26;35.00;;;11.30;;
51048;SDS011;37084;55.228;36.450;2022-11-09T02:20:28;37.63;;;12.27;;
51048;SDS011;37084;55.228;36.450;2022-11-09T02:23:32;35.78;;;11.52;;
51048;SDS011;37084;55.228;36.450;2022-11-09T02:29:45;36.30;;;11.80;;
51048;SDS011;37084;55.228;36.450;2022-11-09T02:32:48;23.05;;;7.78;;
51048;SDS011;37084;55.228;36.450;2022-11-09T02:35:49;31.20;;;10.23;;
51048;SDS011;37084;55.228;36.450;2022-11-09T02:38:51;25.02;;;9.48;;
51048;SDS011;37084;55.228;36.450;2022-11-09T02:41:54;29.27;;;9.52;;
51048;SDS011;37084;55.228;36.450;2022-11-09T02:45:04;26.55;;;8.35;;
51048;SDS011;37084;55.228;36.450;2022-11-09T02:48:07;22.50;;;7.35;;
51048;SDS011;37084;55.228;36.450;2022-11-09T02:51:10;20.45;;;7.75;;
51048;SDS011;37084;55.228;36.450;2022-11-09T02:54:12;19.85;;;8.15;;
51048;SDS011;37084;55.228;36.450;2022-11-09T02:57:14;31.83;;;9.70;;
51048;SDS011;37084;55.228;36.450;2022-11-09T03:00:17;25.33;;;8.38;;
51048;SDS011;37084;55.228;36.450;2022-11-09T03:03:18;23.48;;;8.65;;
51048;SDS011;37084;55.228;36.450;2022-11-09T03:06:19;19.02;;;6.93;;
51048;SDS011;37084;55.228;36.450;2022-11-09T03:09:34;20.70;;;9.18;;
51048;SDS011;37084;55.228;36.450;2022-11-09T03:12:35;22.67;;;8.80;;
51048;SDS011;37084;55.228;36.450;2022-11-09T03:19:10;22.88;;;8.75;;
51048;SDS011;37084;55.228;36.450;2022-11-09T03:22:12;22.70;;;7.97;;
51048;SDS011;37084;55.228;36.450;2022-11-09T03:25:13;19.02;;;7.13;;
51048;SDS011;37084;55.228;36.450;2022-11-09T03:28:14;22.63;;;8.18;;
51048;SDS011;37084;55.228;36.450;2022-11-09T03:31:17;23.65;;;8.15;;
51048;SDS011;37084;55.228;36.450;2022-11-09T03:34:21;21.50;;;6.80;;
51048;SDS011;37084;55.228;36.450;2022-11-09T03:37:22;20.85;;;8.43;;
51048;SDS011;37084;55.228;36.450;2022-11-09T03:40:24;20.52;;;7.05;;
51048;SDS011;37084;55.228;36.450;2022-11-09T03:43:27;20.17;;;6.68;;
51048;SDS011;37084;55.228;36.450;2022-11-09T03:46:28;19.30;;;6.78;;
51048;SDS011;37084;55.228;36.450;2022-11-09T03:49:29;22.33;;;8.60;;
51048;SDS011;37084;55.228;36.450;2022-11-09T03:52:31;20.45;;;8.40;;
51048;SDS011;37084;55.228;36.450;2022-11-09T03:55:34;23.65;;;7.90;;
51048;SDS011;37084;55.228;36.450;2022-11-09T03:58:35;22.20;;;7.72;;
51048;SDS011;37084;55.228;36.450;2022-11-09T04:01:36;18.90;;;7.45;;
51048;SDS011;37084;55.228;36.450;2022-11-09T04:04:38;19.25;;;7.68;;
51048;SDS011;37084;55.228;36.450;2022-11-09T04:07:39;20.70;;;7.65;;
51048;SDS011;37084;55.228;36.450;2022-11-09T04:10:40;23.50;;;7.90;;
51048;SDS011;37084;55.228;36.450;2022-11-09T04:13:42;19.50;;;6.97;;
51048;SDS011;37084;55.228;36.450;2022-11-09T04:16:43;21.00;;;7.82;;
51048;SDS011;37084;55.228;36.450;2022-11-09T04:19:44;22.65;;;7.45;;
51048;SDS011;37084;55.228;36.450;2022-11-09T04:22:45;21.00;;;7.00;;
51048;SDS011;37084;55.228;36.450;2022-11-09T04:25:56;24.13;;;8.05;;
51048;SDS011;37084;55.228;36.450;2022-11-09T04:32:00;20.10;;;8.27;;
51048;SDS011;37084;55.228;36.450;2022-11-09T04:35:01;23.08;;;7.38;;
51048;SDS011;37084;55.228;36.450;2022-11-09T04:38:04;20.65;;;7.32;;
51048;SDS011;37084;55.228;36.450;2022-11-09T04:41:08;23.48;;;8.60;;
51048;SDS011;37084;55.228;36.450;2022-11-09T04:44:09;20.98;;;10.20;;
51048;SDS011;37084;55.228;36.450;2022-11-09T04:47:10;25.58;;;7.72;;
51048;SDS011;37084;55.228;36.450;2022-11-09T04:50:11;26.50;;;7.85;;
51048;SDS011;37084;55.228;36.450;2022-11-09T04:53:13;22.17;;;9.20;;
51048;SDS011;37084;55.228;36.450;2022-11-09T04:56:15;24.95;;;7.70;;
51048;SDS011;37084;55.228;36.450;2022-11-09T04:59:16;22.58;;;7.68;;
51048;SDS011;37084;55.228;36.450;2022-11-09T05:02:17;19.45;;;7.25;;
51048;SDS011;37084;55.228;36.450;2022-11-09T05:05:18;23.63;;;8.05;;
51048;SDS011;37084;55.228;36.450;2022-11-09T05:08:20;21.95;;;8.50;;
51048;SDS011;37084;55.228;36.450;2022-11-09T05:11:21;21.73;;;7.82;;
51048;SDS011;37084;55.228;36.450;2022-11-09T05:14:23;21.30;;;7.03;;
51048;SDS011;37084;55.228;36.450;2022-11-09T05:17:24;24.70;;;7.30;;
51048;SDS011;37084;55.228;36.450;2022-11-09T05:20:25;26.55;;;7.78;;
51048;SDS011;37084;55.228;36.450;2022-11-09T05:23:27;16.70;;;6.38;;
51048;SDS011;37084;55.228;36.450;2022-11-09T05:26:47;25.77;;;8.27;;
51048;SDS011;37084;55.228;36.450;2022-11-09T05:29:48;25.83;;;8.45;;
51048;SDS011;37084;55.228;36.450;2022-11-09T05:32:50;28.05;;;8.43;;
51048;SDS011;37084;55.228;36.450;2022-11-09T05:35:54;27.05;;;8.95;;
51048;SDS011;37084;55.228;36.450;2022-11-09T05:38:56;27.23;;;9.20;;
51048;SDS011;37084;55.228;36.450;2022-11-09T05:41:58;25.23;;;9.05;;
51048;SDS011;37084;55.228;36.450;2022-11-09T05:44:59;24.85;;;8.70;;
51048;SDS011;37084;55.228;36.450;2022-11-09T05:48:01;22.48;;;6.95;;
51048;SDS011;37084;55.228;36.450;2022-11-09T05:51:04;22.25;;;7.63;;
51048;SDS011;37084;55.228;36.450;2022-11-09T05:54:07;21.55;;;8.88;;
51048;SDS011;37084;55.228;36.450;2022-11-09T05:57:08;24.05;;;7.22;;
51048;SDS011;37084;55.228;36.450;2022-11-09T06:00:09;23.83;;;7.60;;
51048;SDS011;37084;55.228;36.450;2022-11-09T06:03:13;27.38;;;8.57;;
51048;SDS011;37084;55.228;36.450;2022-11-09T06:06:15;21.23;;;7.55;;
51048;SDS011;37084;55.228;36.450;2022-11-09T06:09:17;28.58;;;9.02;;
51048;SDS011;37084;55.228;36.450;2022-11-09T06:12:18;23.10;;;7.97;;
51048;SDS011;37084;55.228;36.450;2022-11-09T06:15:19;22.67;;;7.65;;
51048;SDS011;37084;55.228;36.450;2022-11-09T06:18:21;26.23;;;8.07;;
51048;SDS011;37084;55.228;36.450;2022-11-09T06:21:23;24.65;;;7.55;;
51048;SDS011;37084;55.228;36.450;2022-11-09T06:24:24;32.40;;;9.13;;
51048;SDS011;37084;55.228;36.450;2022-11-09T06:27:26;25.42;;;9.65;;
51048;SDS011;37084;55.228;36.450;2022-11-09T06:30:27;21.10;;;8.45;;
51048;SDS011;37084;55.228;36.450;2022-11-09T06:33:32;25.60;;;9.13;;
51048;SDS011;37084;55.228;36.450;2022-11-09T06:36:34;25.70;;;8.15;;
51048;SDS011;37084;55.228;36.450;2022-11-09T06:39:35;24.88;;;8.35;;
51048;SDS011;37084;55.228;36.450;2022-11-09T06:42:36;29.13;;;9.13;;
51048;SDS011;37084;55.228;36.450;2022-11-09T06:45:38;17.25;;;6.43;;
51048;SDS011;37084;55.228;36.450;2022-11-09T06:51:59;20.45;;;7.50;;
51048;SDS011;37084;55.228;36.450;2022-11-09T06:55:00;26.90;;;8.88;;
51048;SDS011;37084;55.228;36.450;2022-11-09T06:58:07;24.33;;;7.50;;
51048;SDS011;37084;55.228;36.450;2022-11-09T07:01:12;21.88;;;8.27;;
51048;SDS011;37084;55.228;36.450;2022-11-09T07:04:15;24.10;;;8.35;;
51048;SDS011;37084;55.228;36.450;2022-11-09T07:07:16;20.45;;;6.97;;
51048;SDS011;37084;55.228;36.450;2022-11-09T07:10:18;25.45;;;8.23;;
51048;SDS011;37084;55.228;36.450;2022-11-09T07:13:19;17.70;;;6.68;;
51048;SDS011;37084;55.228;36.450;2022-11-09T07:16:21;21.27;;;7.68;;
51048;SDS011;37084;55.228;36.450;2022-11-09T07:19:22;18.90;;;7.53;;
51048;SDS011;37084;55.228;36.450;2022-11-09T07:22:23;17.52;;;7.25;;
51048;SDS011;37084;55.228;36.450;2022-11-09T07:25:24;18.65;;;6.80;;
51048;SDS011;37084;55.228;36.450;2022-11-09T07:28:26;18.38;;;7.03;;
51048;SDS011;37084;55.228;36.450;2022-11-09T07:31:28;21.67;;;7.55;;
51048;SDS011;37084;55.228;36.450;2022-11-09T07:34:30;17.20;;;6.45;;
51048;SDS011;37084;55.228;36.450;2022-11-09T07:37:31;16.50;;;6.57;;
51048;SDS011;37084;55.228;36.450;2022-11-09T07:40:33;18.70;;;6.75;;
51048;SDS011;37084;55.228;36.450;2022-11-09T07:43:35;15.63;;;6.70;;
51048;SDS011;37084;55.228;36.450;2022-11-09T07:46:37;16.40;;;6.32;;
51048;SDS011;37084;55.228;36.450;2022-11-09T07:49:39;18.52;;;7.22;;
51048;SDS011;37084;55.228;36.450;2022-11-09T07:52:40;11.57;;;5.53;;
51048;SDS011;37084;55.228;36.450;2022-11-09T07:55:41;14.82;;;6.55;;
51048;SDS011;37084;55.228;36.450;2022-11-09T07:58:43;16.58;;;6.57;;
51048;SDS011;37084;55.228;36.450;2022-11-09T08:01:45;15.10;;;6.55;;
51048;SDS011;37084;55.228;36.450;2022-11-09T08:04:46;13.73;;;5.63;;
51048;SDS011;37084;55.228;36.450;2022-11-09T08:07:47;14.60;;;6.68;;
51048;SDS011;37084;55.228;36.450;2022-11-09T08:10:49;14.38;;;5.13;;
51048;SDS011;37084;55.228;36.450;2022-11-09T08:13:52;14.90;;;6.22;;
51048;SDS011;37084;55.228;36.450;2022-11-09T08:16:53;19.33;;;6.72;;
51048;SDS011;37084;55.228;36.450;2022-11-09T08:19:54;15.25;;;6.40;;
51048;SDS011;37084;55.228;36.450;2022-11-09T08:22:56;14.27;;;6.28;;
51048;SDS011;37084;55.228;36.450;2022-11-09T08:26:00;11.80;;;5.13;;
51048;SDS011;37084;55.228;36.450;2022-11-09T08:29:03;13.23;;;5.72;;
51048;SDS011;37084;55.228;36.450;2022-11-09T08:32:04;14.07;;;6.97;;
51048;SDS011;37084;55.228;36.450;2022-11-09T08:35:05;9.07;;;4.68;;
51048;SDS011;37084;55.228;36.450;2022-11-09T08:38:10;11.93;;;4.93;;
51048;SDS011;37084;55.228;36.450;2022-11-09T08:41:11;11.00;;;5.15;;
51048;SDS011;37084;55.228;36.450;2022-11-09T08:44:13;13.02;;;5.97;;
51048;SDS011;37084;55.228;36.450;2022-11-09T08:47:14;12.40;;;5.78;;
51048;SDS011;37084;55.228;36.450;2022-11-09T08:50:18;13.40;;;5.15;;
51048;SDS011;37084;55.228;36.450;2022-11-09T08:53:19;11.93;;;5.60;;
51048;SDS011;37084;55.228;36.450;2022-11-09T08:56:21;9.38;;;5.25;;
51048;SDS011;37084;55.228;36.450;2022-11-09T08:59:22;14.20;;;6.00;;
51048;SDS011;37084;55.228;36.450;2022-11-09T09:02:24;13.32;;;6.13;;
51048;SDS011;37084;55.228;36.450;2022-11-09T09:05:25;10.48;;;5.35;;
51048;SDS011;37084;55.228;36.450;2022-11-09T09:11:46;10.25;;;5.72;;
51048;SDS011;37084;55.228;36.450;2022-11-09T09:14:48;11.38;;;5.50;;
51048;SDS011;37084;55.228;36.450;2022-11-09T09:17:49;11.90;;;5.38;;
51048;SDS011;37084;55.228;36.450;2022-11-09T09:20:51;13.80;;;6.50;;
51048;SDS011;37084;55.228;36.450;2022-11-09T09:23:52;13.77;;;6.60;;
51048;SDS011;37084;55.228;36.450;2022-11-09T09:26:54;11.35;;;4.97;;
51048;SDS011;37084;55.228;36.450;2022-11-09T09:29:55;16.05;;;6.30;;
51048;SDS011;37084;55.228;36.450;2022-11-09T09:33:00;17.85;;;6.45;;
51048;SDS011;37084;55.228;36.450;2022-11-09T09:36:01;12.68;;;5.63;;
51048;SDS011;37084;55.228;36.450;2022-11-09T09:39:02;16.23;;;6.25;;
51048;SDS011;37084;55.228;36.450;2022-11-09T09:42:04;13.77;;;6.18;;
51048;SDS011;37084;55.228;36.450;2022-11-09T09:48:23;12.65;;;5.28;;
51048;SDS011;37084;55.228;36.450;2022-11-09T09:58:22;11.85;;;5.68;;
51048;SDS011;37084;55.228;36.450;2022-11-09T10:01:29;12.13;;;4.72;;
51048;SDS011;37084;55.228;36.450;2022-11-09T10:04:37;14.68;;;6.38;;
51048;SDS011;37084;55.228;36.450;2022-11-09T10:07:47;12.18;;;5.63;;
51048;SDS011;37084;55.228;36.450;2022-11-09T10:11:01;8.98;;;4.25;;
51048;SDS011;37084;55.228;36.450;2022-11-09T10:14:36;10.90;;;4.90;;
51048;SDS011;37084;55.228;36.450;2022-11-09T10:17:51;9.40;;;4.88;;
51048;SDS011;37084;55.228;36.450;2022-11-09T10:21:14;10.43;;;5.25;;
51048;SDS011;37084;55.228;36.450;2022-11-09T10:27:33;9.50;;;5.18;;
51048;SDS011;37084;55.228;36.450;2022-11-09T10:30:36;13.05;;;7.35;;
51048;SDS011;37084;55.228;36.450;2022-11-09T10:33:38;11.27;;;5.55;;
51048;SDS011;37084;55.228;36.450;2022-11-09T10:36:44;11.65;;;5.30;;
51048;SDS011;37084;55.228;36.450;2022-11-09T10:39:53;13.68;;;6.03;;
51048;SDS011;37084;55.228;36.450;2022-11-09T10:43:16;13.02;;;6.10;;
51048;SDS011;37084;55.228;36.450;2022-11-09T10:50:26;12.30;;;5.75;;
51048;SDS011;37084;55.228;36.450;2022-11-09T10:58:20;13.40;;;5.47;;
51048;SDS011;37084;55.228;36.450;2022-11-09T11:01:40;14.13;;;6.65;;
51048;SDS011;37084;55.228;36.450;2022-11-09T11:08:34;13.25;;;6.55;;
51048;SDS011;37084;55.228;36.450;2022-11-09T11:12:15;10.45;;;6.03;;
51048;SDS011;37084;55.228;36.450;2022-11-09T11:15:39;13.13;;;5.97;;
51048;SDS011;37084;55.228;36.450;2022-11-09T11:19:00;15.43;;;7.15;;
51048;SDS011;37084;55.228;36.450;2022-11-09T11:22:22;14.25;;;5.97;;
51048;SDS011;37084;55.228;36.450;2022-11-09T11:29:32;19.83;;;7.43;;
51048;SDS011;37084;55.228;36.450;2022-11-09T11:33:11;24.70;;;12.38;;
51048;SDS011;37084;55.228;36.450;2022-11-09T11:40:06;14.93;;;6.97;;
51048;SDS011;37084;55.228;36.450;2022-11-09T11:43:44;16.77;;;7.97;;
51048;SDS011;37084;55.228;36.450;2022-11-09T11:47:27;16.40;;;8.55;;
51048;SDS011;37084;55.228;36.450;2022-11-09T11:51:18;27.30;;;12.85;;
51048;SDS011;37084;55.228;36.450;2022-11-09T12:01:42;17.05;;;7.45;;
51048;SDS011;37084;55.228;36.450;2022-11-09T12:09:02;19.52;;;7.93;;
51048;SDS011;37084;55.228;36.450;2022-11-09T12:12:46;19.75;;;8.27;;
51048;SDS011;37084;55.228;36.450;2022-11-09T12:20:02;16.50;;;8.60;;
51048;SDS011;37084;55.228;36.450;2022-11-09T12:23:45;20.75;;;8.63;;
51048;SDS011;37084;55.228;36.450;2022-11-09T12:27:35;22.05;;;7.95;;
51048;SDS011;37084;55.228;36.450;2022-11-09T12:34:50;18.55;;;8.27;;
51048;SDS011;37084;55.228;36.450;2022-11-09T12:41:42;18.05;;;8.10;;
51048;SDS011;37084;55.228;36.450;2022-11-09T12:45:12;18.13;;;8.07;;
51048;SDS011;37084;55.228;36.450;2022-11-09T12:48:36;21.17;;;8.00;;
51048;SDS011;37084;55.228;36.450;2022-11-09T12:51:56;21.88;;;8.00;;
51048;SDS011;37084;55.228;36.450;2022-11-09T12:55:18;19.67;;;7.95;;
51048;SDS011;37084;55.228;36.450;2022-11-09T12:58:41;19.90;;;7.97;;
51048;SDS011;37084;55.228;36.450;2022-11-09T13:02:00;22.42;;;8.50;;
51048;SDS011;37084;55.228;36.450;2022-11-09T13:05:29;16.85;;;8.27;;
51048;SDS011;37084;55.228;36.450;2022-11-09T13:23:22;18.33;;;7.65;;
51048;SDS011;37084;55.228;36.450;2022-11-09T13:27:01;24.70;;;9.40;;
51048;SDS011;37084;55.228;36.450;2022-11-09T13:33:41;20.05;;;8.88;;
51048;SDS011;37084;55.228;36.450;2022-11-09T13:40:58;16.90;;;7.90;;
51048;SDS011;37084;55.228;36.450;2022-11-09T13:44:21;18.90;;;8.88;;
51048;SDS011;37084;55.228;36.450;2022-11-09T13:47:48;20.80;;;8.45;;
51048;SDS011;37084;55.228;36.450;2022-11-09T13:51:10;19.58;;;8.10;;
51048;SDS011;37084;55.228;36.450;2022-11-09T13:54:34;16.52;;;8.85;;
51048;SDS011;37084;55.228;36.450;2022-11-09T13:57:56;17.77;;;7.38;;
51048;SDS011;37084;55.228;36.450;2022-11-09T14:01:26;19.10;;;8.73;;
51048;SDS011;37084;55.228;36.450;2022-11-09T14:04:48;20.50;;;8.80;;
51048;SDS011;37084;55.228;36.450;2022-11-09T14:08:08;19.45;;;8.48;;
51048;SDS011;37084;55.228;36.450;2022-11-09T14:15:09;18.52;;;7.22;;
51048;SDS011;37084;55.228;36.450;2022-11-09T14:21:57;16.15;;;8.05;;
51048;SDS011;37084;55.228;36.450;2022-11-09T14:25:17;17.90;;;9.02;;
51048;SDS011;37084;55.228;36.450;2022-11-09T14:28:38;21.85;;;9.43;;
51048;SDS011;37084;55.228;36.450;2022-11-09T14:31:59;19.75;;;9.82;;
51048;SDS011;37084;55.228;36.450;2022-11-09T14:38:43;18.65;;;9.13;;
51048;SDS011;37084;55.228;36.450;2022-11-09T14:42:05;18.45;;;8.90;;
51048;SDS011;37084;55.228;36.450;2022-11-09T14:45:26;18.67;;;8.95;;
51048;SDS011;37084;55.228;36.450;2022-11-09T14:49:04;18.23;;;9.23;;
51048;SDS011;37084;55.228;36.450;2022-11-09T14:52:25;22.30;;;10.95;;
51048;SDS011;37084;55.228;36.450;2022-11-09T14:55:48;17.27;;;8.88;;
51048;SDS011;37084;55.228;36.450;2022-11-09T14:59:15;17.13;;;9.43;;
51048;SDS011;37084;55.228;36.450;2022-11-09T15:02:37;22.50;;;9.90;;
51048;SDS011;37084;55.228;36.450;2022-11-09T15:06:10;17.70;;;8.68;;
51048;SDS011;37084;55.228;36.450;2022-11-09T15:09:33;20.63;;;9.38;;
51048;SDS011;37084;55.228;36.450;2022-11-09T15:13:00;21.27;;;8.43;;
51048;SDS011;37084;55.228;36.450;2022-11-09T15:16:22;19.52;;;8.65;;
51048;SDS011;37084;55.228;36.450;2022-11-09T15:19:57;18.55;;;8.82;;
51048;SDS011;37084;55.228;36.450;2022-11-09T15:23:39;19.73;;;9.20;;
51048;SDS011;37084;55.228;36.450;2022-11-09T15:27:01;17.52;;;8.63;;
51048;SDS011;37084;55.228;36.450;2022-11-09T15:30:31;19.45;;;8.65;;
51048;SDS011;37084;55.228;36.450;2022-11-09T15:33:58;17.77;;;9.20;;
51048;SDS011;37084;55.228;36.450;2022-11-09T15:40:44;15.95;;;9.00;;
51048;SDS011;37084;55.228;36.450;2022-11-09T15:44:04;18.00;;;9.00;;
51048;SDS011;37084;55.228;36.450;2022-11-09T15:50:55;14.98;;;7.55;;
51048;SDS011;37084;55.228;36.450;2022-11-09T15:54:15;19.27;;;9.15;;
51048;SDS011;37084;55.228;36.450;2022-11-09T15:57:36;15.63;;;7.95;;
51048;SDS011;37084;55.228;36.450;2022-11-09T16:00:56;16.88;;;9.38;;
51048;SDS011;37084;55.228;36.450;2022-11-09T16:04:16;17.77;;;8.77;;
51048;SDS011;37084;55.228;36.450;2022-11-09T16:07:36;18.90;;;8.68;;
51048;SDS011;37084;55.228;36.450;2022-11-09T16:10:56;15.60;;;7.78;;
51048;SDS011;37084;55.228;36.450;2022-11-09T16:14:16;16.38;;;8.70;;
51048;SDS011;37084;55.228;36.450;2022-11-09T16:17:36;16.38;;;8.73;;
51048;SDS011;37084;55.228;36.450;2022-11-09T16:20:55;12.05;;;7.05;;
51048;SDS011;37084;55.228;36.450;2022-11-09T16:24:16;17.48;;;9.43;;
51048;SDS011;37084;55.228;36.450;2022-11-09T16:27:36;16.85;;;8.57;;
51048;SDS011;37084;55.228;36.450;2022-11-09T16:30:55;13.55;;;6.35;;
51048;SDS011;37084;55.228;36.450;2022-11-09T16:34:15;14.98;;;7.07;;
51048;SDS011;37084;55.228;36.450;2022-11-09T16:37:36;18.75;;;10.05;;
51048;SDS011;37084;55.228;36.450;2022-11-09T16:40:58;15.88;;;6.93;;
51048;SDS011;37084;55.228;36.450;2022-11-09T16:44:19;13.43;;;7.68;;
51048;SDS011;37084;55.228;36.450;2022-11-09T16:47:43;15.13;;;8.05;;
51048;SDS011;37084;55.228;36.450;2022-11-09T16:51:05;14.35;;;7.82;;
51048;SDS011;37084;55.228;36.450;2022-11-09T16:54:25;12.30;;;6.93;;
51048;SDS011;37084;55.228;36.450;2022-11-09T16:57:44;14.45;;;7.53;;
51048;SDS011;37084;55.228;36.450;2022-11-09T17:01:04;17.77;;;8.60;;
51048;SDS011;37084;55.228;36.450;2022-11-09T17:04:24;15.20;;;7.55;;
51048;SDS011;37084;55.228;36.450;2022-11-09T17:07:45;13.85;;;7.65;;
51048;SDS011;37084;55.228;36.450;2022-11-09T17:11:09;12.23;;;6.80;;
51048;SDS011;37084;55.228;36.450;2022-11-09T17:14:30;13.30;;;6.75;;
51048;SDS011;37084;55.228;36.450;2022-11-09T17:17:50;12.07;;;6.57;;
51048;SDS011;37084;55.228;36.450;2022-11-09T17:21:09;12.15;;;5.55;;
51048;SDS011;37084;55.228;36.450;2022-11-09T17:24:32;11.18;;;6.40;;
51048;SDS011;37084;55.228;36.450;2022-11-09T17:27:52;13.57;;;7.40;;
51048;SDS011;37084;55.228;36.450;2022-11-09T17:31:12;14.93;;;7.80;;
51048;SDS011;37084;55.228;36.450;2022-11-09T17:34:34;13.52;;;7.43;;
51048;SDS011;37084;55.228;36.450;2022-11-09T17:37:54;14.70;;;6.90;;
51048;SDS011;37084;55.228;36.450;2022-11-09T17:41:15;12.98;;;6.13;;
51048;SDS011;37084;55.228;36.450;2022-11-09T17:44:35;15.35;;;7.78;;
51048;SDS011;37084;55.228;36.450;2022-11-09T17:47:56;11.52;;;6.10;;
51048;SDS011;37084;55.228;36.450;2022-11-09T17:51:17;13.65;;;6.95;;
51048;SDS011;37084;55.228;36.450;2022-11-09T17:54:37;14.43;;;6.60;;
51048;SDS011;37084;55.228;36.450;2022-11-09T17:57:57;13.25;;;6.53;;
51048;SDS011;37084;55.228;36.450;2022-11-09T18:01:18;14.10;;;7.22;;
51048;SDS011;37084;55.228;36.450;2022-11-09T18:04:38;14.02;;;6.45;;
51048;SDS011;37084;55.228;36.450;2022-11-09T18:07:59;13.18;;;6.70;;
51048;SDS011;37084;55.228;36.450;2022-11-09T18:11:18;16.00;;;6.88;;
51048;SDS011;37084;55.228;36.450;2022-11-09T18:14:38;11.63;;;6.43;;
51048;SDS011;37084;55.228;36.450;2022-11-09T18:17:58;13.57;;;6.47;;
51048;SDS011;37084;55.228;36.450;2022-11-09T18:21:18;14.45;;;6.03;;
51048;SDS011;37084;55.228;36.450;2022-11-09T18:24:38;16.27;;;8.52;;
51048;SDS011;37084;55.228;36.450;2022-11-09T18:27:57;14.05;;;6.15;;
51048;SDS011;37084;55.228;36.450;2022-11-09T18:31:17;16.83;;;7.55;;
51048;SDS011;37084;55.228;36.450;2022-11-09T18:34:36;16.65;;;7.32;;
51048;SDS011;37084;55.228;36.450;2022-11-09T18:37:56;12.30;;;7.60;;
51048;SDS011;37084;55.228;36.450;2022-11-09T18:41:17;12.88;;;6.30;;
51048;SDS011;37084;55.228;36.450;2022-11-09T18:44:40;9.98;;;5.32;;
51048;SDS011;37084;55.228;36.450;2022-11-09T18:47:59;13.55;;;6.78;;
51048;SDS011;37084;55.228;36.450;2022-11-09T18:51:19;12.43;;;5.65;;
51048;SDS011;37084;55.228;36.450;2022-11-09T18:54:39;15.30;;;7.35;;
51048;SDS011;37084;55.228;36.450;2022-11-09T18:57:58;13.13;;;6.72;;
51048;SDS011;37084;55.228;36.450;2022-11-09T19:01:18;16.25;;;7.18;;
51048;SDS011;37084;55.228;36.450;2022-11-09T19:04:39;17.15;;;7.35;;
51048;SDS011;37084;55.228;36.450;2022-11-09T19:07:58;13.75;;;7.82;;
51048;SDS011;37084;55.228;36.450;2022-11-09T19:11:18;16.80;;;8.20;;
51048;SDS011;37084;55.228;36.450;2022-11-09T19:14:37;15.65;;;7.70;;
51048;SDS011;37084;55.228;36.450;2022-11-09T19:24:47;16.20;;;6.90;;
51048;SDS011;37084;55.228;36.450;2022-11-09T19:28:07;12.02;;;6.68;;
51048;SDS011;37084;55.228;36.450;2022-11-09T19:31:27;11.93;;;6.53;;
51048;SDS011;37084;55.228;36.450;2022-11-09T19:34:47;15.18;;;7.60;;
51048;SDS011;37084;55.228;36.450;2022-11-09T19:38:07;17.42;;;7.65;;
51048;SDS011;37084;55.228;36.450;2022-11-09T19:41:27;17.23;;;7.53;;
51048;SDS011;37084;55.228;36.450;2022-11-09T19:44:47;15.80;;;7.57;;
51048;SDS011;37084;55.228;36.450;2022-11-09T19:48:06;13.02;;;7.25;;
51048;SDS011;37084;55.228;36.450;2022-11-09T19:51:26;13.10;;;7.78;;
51048;SDS011;37084;55.228;36.450;2022-11-09T19:54:49;15.27;;;7.47;;
51048;SDS011;37084;55.228;36.450;2022-11-09T19:58:09;15.15;;;7.43;;
51048;SDS011;37084;55.228;36.450;2022-11-09T20:01:29;12.57;;;7.13;;
51048;SDS011;37084;55.228;36.450;2022-11-09T20:04:48;15.55;;;7.40;;
51048;SDS011;37084;55.228;36.450;2022-11-09T20:08:10;14.63;;;7.45;;
51048;SDS011;37084;55.228;36.450;2022-11-09T20:11:29;13.25;;;7.05;;
51048;SDS011;37084;55.228;36.450;2022-11-09T20:15:08;16.58;;;7.68;;
51048;SDS011;37084;55.228;36.450;2022-11-09T20:18:27;11.23;;;6.07;;
51048;SDS011;37084;55.228;36.450;2022-11-09T20:21:48;16.67;;;7.68;;
51048;SDS011;37084;55.228;36.450;2022-11-09T20:25:07;19.95;;;8.80;;
51048;SDS011;37084;55.228;36.450;2022-11-09T20:28:27;18.10;;;8.95;;
51048;SDS011;37084;55.228;36.450;2022-11-09T20:31:47;15.52;;;7.28;;
51048;SDS011;37084;55.228;36.450;2022-11-09T20:35:06;18.05;;;8.63;;
51048;SDS011;37084;55.228;36.450;2022-11-09T20:38:27;15.20;;;7.25;;